Airport View

Enter AWOS ICAO identifier for current METAR.

ex. KFNL

KCLI 120532Z AUTO 00000KT 10SM OVC090 M15/M20 A3046 RMK AO2 T11511200

12 Dec 2019 05:34

Frequency: 120.675

Phone: 715-823-7691

Other Area AWOS: KEZS - KPCZ - KATW - KGRB

TAF KATW 112326Z 1200/1224 26005KT P6SM SCT250 FM120400 14003KT P6SM BKN080 FM121200 13008KT P6SM -SN OVC060 FM121500 14009KT 4SM -SN OVC035 FM121600 17009KT 1 1/2SM -SN OVC015 FM122200 23006KT 4SM -SN OVC011